createdAt,value
2017-07-15T00:00:30.463Z,0
2017-07-15T00:01:11.347Z,0
2017-07-15T00:01:52.236Z,0
2017-07-15T00:02:33.127Z,0
2017-07-15T00:03:14.019Z,0
2017-07-15T00:03:54.908Z,0
2017-07-15T00:04:35.793Z,0
2017-07-15T00:05:16.690Z,0
2017-07-15T00:05:57.573Z,0
2017-07-15T00:06:38.461Z,0
2017-07-15T00:07:19.351Z,0
2017-07-15T00:08:00.242Z,0
2017-07-15T00:08:41.117Z,0
2017-07-15T00:09:22.015Z,0
2017-07-15T00:10:02.902Z,0
2017-07-15T00:10:43.797Z,0
2017-07-15T00:11:24.676Z,0
2017-07-15T00:12:05.558Z,0
2017-07-15T00:12:46.445Z,0
2017-07-15T00:13:27.335Z,0
2017-07-15T00:14:08.227Z,0
2017-07-15T00:14:49.117Z,0
2017-07-15T00:15:30.004Z,0
2017-07-15T00:16:10.903Z,0
2017-07-15T00:16:51.792Z,0
2017-07-15T00:17:32.674Z,0
2017-07-15T00:18:13.561Z,0
2017-07-15T00:18:54.453Z,0
2017-07-15T00:19:35.340Z,0
2017-07-15T00:20:16.236Z,0
2017-07-15T00:20:57.131Z,0
2017-07-15T00:21:38.023Z,0
2017-07-15T00:22:18.916Z,0
2017-07-15T00:22:59.800Z,0
2017-07-15T00:23:40.688Z,0
2017-07-15T00:24:21.568Z,0
2017-07-15T00:25:02.481Z,0
2017-07-15T00:25:43.344Z,0
2017-07-15T00:26:24.238Z,0
2017-07-15T00:27:05.122Z,0
2017-07-15T00:27:46.005Z,0
2017-07-15T00:28:26.889Z,0
2017-07-15T00:29:07.777Z,0
2017-07-15T00:29:48.659Z,0
2017-07-15T00:30:29.543Z,0
2017-07-15T00:31:10.428Z,0
2017-07-15T00:31:51.305Z,0
2017-07-15T00:32:32.192Z,0
2017-07-15T00:33:13.079Z,0
2017-07-15T00:33:53.957Z,0
2017-07-15T00:34:34.839Z,0
2017-07-15T00:35:15.753Z,0
2017-07-15T00:35:56.637Z,0
2017-07-15T00:36:37.522Z,0
2017-07-15T00:37:18.404Z,0
2017-07-15T00:37:59.288Z,0
2017-07-15T00:38:40.179Z,0
2017-07-15T00:39:21.055Z,0
2017-07-15T00:40:01.951Z,0
2017-07-15T00:40:42.877Z,0
2017-07-15T00:41:23.727Z,0
2017-07-15T00:42:04.615Z,0
2017-07-15T00:42:45.504Z,0
2017-07-15T00:43:26.389Z,0
2017-07-15T00:44:07.282Z,0
2017-07-15T00:44:48.168Z,0
2017-07-15T00:45:29.053Z,0
2017-07-15T00:46:09.967Z,0
2017-07-15T00:46:50.846Z,0
2017-07-15T00:47:31.739Z,0
2017-07-15T00:48:12.625Z,0
2017-07-15T00:48:53.524Z,0
2017-07-15T00:49:34.415Z,0
2017-07-15T00:50:15.319Z,0
2017-07-15T00:50:56.202Z,0
2017-07-15T00:51:37.084Z,0
2017-07-15T00:52:17.965Z,0
2017-07-15T00:52:58.848Z,0
2017-07-15T00:53:39.730Z,0
2017-07-15T00:54:20.626Z,0
2017-07-15T00:55:01.519Z,0
2017-07-15T00:55:42.424Z,0
2017-07-15T00:56:23.306Z,0
2017-07-15T00:57:04.190Z,0
2017-07-15T00:59:03.980Z,0
2017-07-15T00:59:44.893Z,0
2017-07-15T01:00:25.782Z,0
2017-07-15T01:01:06.674Z,0
2017-07-15T01:01:47.573Z,0
2017-07-15T01:02:28.452Z,0
2017-07-15T01:03:09.355Z,0
2017-07-15T01:03:50.284Z,0
2017-07-15T01:04:31.152Z,0
2017-07-15T01:05:12.038Z,0
2017-07-15T01:05:52.927Z,0
2017-07-15T01:06:33.816Z,0
2017-07-15T01:07:14.703Z,0
2017-07-15T01:07:55.584Z,0
2017-07-15T01:08:36.467Z,0
2017-07-15T01:09:17.354Z,0
2017-07-15T01:09:58.246Z,0
2017-07-15T01:10:39.133Z,0
2017-07-15T01:11:20.013Z,0
2017-07-15T01:12:00.909Z,0
2017-07-15T01:12:41.792Z,0
2017-07-15T01:13:22.683Z,0
2017-07-15T01:14:03.567Z,0
2017-07-15T01:14:44.453Z,0
2017-07-15T01:15:25.343Z,0
2017-07-15T01:16:06.241Z,0
2017-07-15T01:16:47.130Z,0
2017-07-15T01:17:28.027Z,0
2017-07-15T01:18:08.919Z,0
2017-07-15T01:18:49.810Z,0
2017-07-15T01:19:30.703Z,0
2017-07-15T01:20:11.593Z,0
2017-07-15T01:20:52.479Z,0
2017-07-15T01:21:33.378Z,0
2017-07-15T01:22:14.266Z,0
2017-07-15T01:22:55.160Z,0
2017-07-15T01:23:36.054Z,0
2017-07-15T01:24:16.958Z,0
2017-07-15T01:24:57.838Z,0
2017-07-15T01:25:38.756Z,0
2017-07-15T01:26:19.635Z,0
2017-07-15T01:27:00.501Z,0
2017-07-15T01:27:41.388Z,0
2017-07-15T01:28:22.272Z,0
2017-07-15T01:29:03.148Z,0
2017-07-15T01:29:44.038Z,0
2017-07-15T01:30:24.927Z,0
2017-07-15T01:31:05.825Z,0
2017-07-15T01:31:46.734Z,0
2017-07-15T01:32:27.620Z,0
2017-07-15T01:33:08.514Z,0
2017-07-15T01:33:49.406Z,0
2017-07-15T01:34:30.294Z,0
2017-07-15T01:35:11.187Z,0
2017-07-15T01:35:52.070Z,0
2017-07-15T01:36:32.958Z,0
2017-07-15T01:37:13.853Z,0
2017-07-15T01:37:54.722Z,0
2017-07-15T01:38:35.621Z,0
2017-07-15T01:39:16.522Z,0
2017-07-15T01:39:57.407Z,0
2017-07-15T01:40:38.297Z,0
2017-07-15T01:41:19.181Z,0
2017-07-15T01:42:00.066Z,0
2017-07-15T01:42:40.983Z,0
2017-07-15T01:43:21.868Z,0
2017-07-15T01:44:02.757Z,0
2017-07-15T01:44:43.644Z,0
2017-07-15T01:45:24.548Z,0
2017-07-15T01:46:05.483Z,0
2017-07-15T01:46:46.391Z,0
2017-07-15T01:47:27.286Z,0
2017-07-15T01:48:08.173Z,0
2017-07-15T01:48:49.071Z,0
2017-07-15T01:49:29.964Z,0
2017-07-15T01:50:10.860Z,0
2017-07-15T01:50:51.754Z,0
2017-07-15T01:51:32.637Z,0
2017-07-15T01:52:13.529Z,0
2017-07-15T01:52:54.412Z,0
2017-07-15T01:53:35.300Z,0
2017-07-15T01:54:16.207Z,0
2017-07-15T01:54:57.091Z,0
2017-07-15T01:55:38.002Z,0
2017-07-15T01:56:18.872Z,0
2017-07-15T01:56:59.756Z,0
2017-07-15T01:57:40.639Z,0
2017-07-15T01:58:21.524Z,0
2017-07-15T01:59:02.416Z,0
2017-07-15T01:59:43.306Z,0
2017-07-15T02:00:24.201Z,0
2017-07-15T02:01:05.088Z,0
2017-07-15T02:01:45.990Z,0
2017-07-15T02:02:26.877Z,0
2017-07-15T02:03:07.770Z,0
2017-07-15T02:03:48.656Z,0
2017-07-15T02:04:29.552Z,0
2017-07-15T02:05:10.440Z,0
2017-07-15T02:05:51.319Z,0
2017-07-15T02:06:32.211Z,0
2017-07-15T02:07:13.102Z,0
2017-07-15T02:07:53.985Z,0
2017-07-15T02:08:34.866Z,0
2017-07-15T02:09:15.751Z,0
2017-07-15T02:09:56.643Z,0
2017-07-15T02:10:37.511Z,0
2017-07-15T02:11:18.400Z,0
2017-07-15T02:11:59.273Z,0
2017-07-15T02:12:40.163Z,0
2017-07-15T02:13:21.046Z,0
2017-07-15T02:14:01.933Z,0
2017-07-15T02:14:42.822Z,0
2017-07-15T02:15:23.717Z,0
2017-07-15T02:16:04.601Z,0
2017-07-15T02:16:45.495Z,0
2017-07-15T02:17:26.384Z,0
2017-07-15T02:18:07.261Z,0
2017-07-15T02:18:48.156Z,0
2017-07-15T02:19:29.051Z,0
2017-07-15T02:20:09.947Z,0
2017-07-15T02:20:50.830Z,0
2017-07-15T02:21:31.769Z,0
2017-07-15T02:22:12.657Z,0
2017-07-15T02:22:53.536Z,0
2017-07-15T02:23:34.426Z,0
2017-07-15T02:24:15.314Z,0
2017-07-15T02:24:56.198Z,0
2017-07-15T02:25:37.079Z,0
2017-07-15T02:26:17.986Z,0
2017-07-15T02:26:58.880Z,0
2017-07-15T02:27:39.777Z,0
2017-07-15T02:28:20.661Z,0
2017-07-15T02:29:01.550Z,0
2017-07-15T02:29:42.439Z,0
2017-07-15T02:31:51.452Z,0
2017-07-15T02:32:32.332Z,0
2017-07-15T02:33:13.221Z,0
2017-07-15T02:33:54.109Z,0
2017-07-15T02:34:35.001Z,0
2017-07-15T02:35:15.885Z,0
2017-07-15T02:35:56.767Z,0
2017-07-15T02:36:37.657Z,0
2017-07-15T02:37:18.545Z,0
2017-07-15T02:37:59.428Z,0
2017-07-15T02:38:40.319Z,0
2017-07-15T02:39:21.213Z,0
2017-07-15T02:40:02.099Z,0
2017-07-15T02:40:42.992Z,0
2017-07-15T02:41:23.871Z,0
2017-07-15T02:42:04.771Z,0
2017-07-15T02:42:45.671Z,0
2017-07-15T02:43:26.557Z,0
2017-07-15T02:44:07.449Z,0
2017-07-15T02:44:48.336Z,0
2017-07-15T02:45:29.239Z,0
2017-07-15T02:46:10.136Z,0
2017-07-15T02:46:51.022Z,0
2017-07-15T02:47:31.913Z,0
2017-07-15T02:48:12.803Z,0
2017-07-15T02:48:53.689Z,0
2017-07-15T02:49:34.587Z,0
2017-07-15T02:50:15.474Z,0
2017-07-15T02:50:56.365Z,0
2017-07-15T02:51:37.254Z,0
2017-07-15T02:52:18.116Z,0
2017-07-15T02:52:59.006Z,0
2017-07-15T02:53:39.896Z,0
2017-07-15T02:54:20.793Z,0
2017-07-15T02:55:01.684Z,0
2017-07-15T02:55:42.592Z,0
2017-07-15T02:56:23.515Z,0
2017-07-15T02:57:04.402Z,0
2017-07-15T02:57:45.295Z,0
2017-07-15T02:58:26.181Z,0
2017-07-15T02:59:07.066Z,0
2017-07-15T02:59:47.954Z,5
2017-07-15T03:00:28.843Z,5
2017-07-15T03:01:09.750Z,5
2017-07-15T03:01:50.645Z,5
2017-07-15T03:02:31.523Z,5
2017-07-15T03:03:12.430Z,5
2017-07-15T03:03:53.310Z,5
2017-07-15T03:04:34.205Z,5
2017-07-15T03:05:15.085Z,5
2017-07-15T03:05:55.979Z,5
2017-07-15T03:06:36.877Z,5
2017-07-15T03:07:17.762Z,5
2017-07-15T03:07:58.656Z,5
2017-07-15T03:08:39.554Z,5
2017-07-15T03:09:20.479Z,10
2017-07-15T03:10:01.363Z,10
2017-07-15T03:10:42.252Z,10
2017-07-15T03:11:23.130Z,10
2017-07-15T03:12:04.013Z,10
2017-07-15T03:12:44.907Z,10
2017-07-15T03:13:25.798Z,15
2017-07-15T03:14:06.689Z,15
2017-07-15T03:14:47.580Z,15
2017-07-15T03:15:28.483Z,15
2017-07-15T03:16:09.377Z,15
2017-07-15T03:16:50.254Z,15
2017-07-15T03:17:31.148Z,20
2017-07-15T03:18:12.042Z,20
2017-07-15T03:18:52.924Z,20
2017-07-15T03:19:33.833Z,20
2017-07-15T03:20:14.709Z,20
2017-07-15T03:20:55.602Z,25
2017-07-15T03:21:36.484Z,25
2017-07-15T03:22:17.392Z,25
2017-07-15T03:22:58.284Z,25
2017-07-15T03:23:39.151Z,25
2017-07-15T03:24:20.041Z,25
2017-07-15T03:25:00.938Z,30
2017-07-15T03:25:41.823Z,30
2017-07-15T03:26:22.699Z,30
2017-07-15T03:27:03.582Z,30
2017-07-15T03:27:44.473Z,30
2017-07-15T03:28:25.359Z,35
2017-07-15T03:29:06.249Z,35
2017-07-15T03:29:47.145Z,35
2017-07-15T03:30:28.029Z,35
2017-07-15T03:31:08.924Z,35
2017-07-15T03:31:49.808Z,35
2017-07-15T03:32:30.703Z,35
2017-07-15T03:33:11.591Z,40
2017-07-15T03:33:52.483Z,40
2017-07-15T03:34:33.372Z,40
2017-07-15T03:35:14.264Z,40
2017-07-15T03:35:55.161Z,40
2017-07-15T03:36:36.052Z,40
2017-07-15T03:37:16.926Z,45
2017-07-15T03:37:57.805Z,45
2017-07-15T03:38:38.693Z,45
2017-07-15T03:39:19.585Z,45
2017-07-15T03:40:00.472Z,45
2017-07-15T03:40:41.363Z,45
2017-07-15T03:41:22.271Z,50
2017-07-15T03:42:03.167Z,50
2017-07-15T03:42:44.059Z,50
2017-07-15T03:43:24.949Z,50
2017-07-15T03:44:05.844Z,50
2017-07-15T03:44:46.733Z,50
2017-07-15T03:45:27.623Z,55
2017-07-15T03:46:08.512Z,55
2017-07-15T03:46:49.407Z,55
2017-07-15T03:47:30.293Z,55
2017-07-15T03:48:11.179Z,55
2017-07-15T03:48:52.078Z,55
2017-07-15T03:49:32.963Z,55
2017-07-15T03:50:13.850Z,60
2017-07-15T03:50:54.729Z,60
2017-07-15T03:51:35.622Z,60
2017-07-15T03:52:16.512Z,60
2017-07-15T03:52:57.406Z,60
2017-07-15T03:53:38.296Z,60
2017-07-15T03:54:19.206Z,65
2017-07-15T03:55:00.070Z,65
2017-07-15T03:55:40.968Z,65
2017-07-15T03:56:21.887Z,70
2017-07-15T03:57:02.786Z,70
2017-07-15T03:57:43.662Z,70
2017-07-15T03:58:24.546Z,70
2017-07-15T03:59:05.420Z,70
2017-07-15T03:59:46.310Z,75
2017-07-15T04:00:27.190Z,75
2017-07-15T04:01:08.078Z,75
2017-07-15T04:01:49.023Z,75
2017-07-15T04:02:29.929Z,75
2017-07-15T04:03:10.820Z,75
2017-07-15T04:03:51.700Z,75
2017-07-15T04:04:32.595Z,75
2017-07-15T04:05:13.480Z,80
2017-07-15T04:05:54.372Z,80
2017-07-15T04:06:35.262Z,80
2017-07-15T04:07:16.162Z,80
2017-07-15T04:07:57.054Z,85
2017-07-15T04:08:37.936Z,85
2017-07-15T04:09:18.823Z,90
2017-07-15T04:09:59.720Z,90
2017-07-15T04:10:40.612Z,90
2017-07-15T04:11:21.517Z,95
2017-07-15T04:12:02.402Z,95
2017-07-15T04:12:43.287Z,95
2017-07-15T04:13:24.171Z,95
2017-07-15T04:14:05.070Z,95
2017-07-15T04:14:45.959Z,95
2017-07-15T04:15:26.870Z,95
2017-07-15T04:16:07.754Z,95
2017-07-15T04:16:48.649Z,95
2017-07-15T04:17:29.548Z,95
2017-07-15T04:18:10.492Z,95
2017-07-15T04:18:51.382Z,95
2017-07-15T04:19:32.282Z,95
2017-07-15T04:20:13.241Z,100
2017-07-15T04:20:54.141Z,100
2017-07-15T04:21:35.027Z,100
2017-07-15T04:22:15.946Z,100
2017-07-15T04:22:56.833Z,105
2017-07-15T04:23:37.728Z,105
2017-07-15T04:24:18.635Z,105
2017-07-15T04:24:59.514Z,110
2017-07-15T04:25:40.414Z,110
2017-07-15T04:26:21.312Z,110
2017-07-15T04:27:02.185Z,110
2017-07-15T04:27:43.061Z,110
2017-07-15T04:28:23.939Z,110
2017-07-15T04:29:04.828Z,110
2017-07-15T04:29:45.713Z,110
2017-07-15T04:30:26.617Z,110
2017-07-15T04:31:07.516Z,110
2017-07-15T04:31:48.400Z,105
2017-07-15T04:32:29.289Z,105
2017-07-15T04:33:10.185Z,105
2017-07-15T04:33:51.082Z,110
2017-07-15T04:34:31.963Z,110
2017-07-15T04:35:12.850Z,110
2017-07-15T04:35:53.731Z,110
2017-07-15T04:36:34.620Z,115
2017-07-15T04:37:15.526Z,115
2017-07-15T04:37:56.462Z,115
2017-07-15T04:38:37.354Z,120
2017-07-15T04:39:18.247Z,120
2017-07-15T04:39:59.138Z,120
2017-07-15T04:40:40.031Z,120
2017-07-15T04:41:20.913Z,125
2017-07-15T04:42:01.806Z,125
2017-07-15T04:42:42.700Z,125
2017-07-15T04:43:23.593Z,125
2017-07-15T04:44:04.469Z,125
2017-07-15T04:44:45.358Z,135
2017-07-15T04:45:26.251Z,130
2017-07-15T04:46:07.131Z,130
2017-07-15T04:46:48.023Z,130
2017-07-15T04:47:28.909Z,135
2017-07-15T04:48:09.792Z,135
2017-07-15T04:48:50.675Z,135
2017-07-15T04:49:31.570Z,135
2017-07-15T04:50:12.477Z,140
2017-07-15T04:50:53.372Z,140
2017-07-15T04:51:34.254Z,140
2017-07-15T04:52:15.144Z,145
2017-07-15T04:52:56.036Z,145
2017-07-15T04:53:37.044Z,145
2017-07-15T04:54:17.931Z,145
2017-07-15T04:54:58.824Z,145
2017-07-15T04:55:39.720Z,145
2017-07-15T04:56:20.613Z,145
2017-07-15T04:58:34.950Z,150
2017-07-15T04:59:15.834Z,150
2017-07-15T04:59:56.732Z,150
2017-07-15T05:00:37.617Z,155
2017-07-15T05:01:18.501Z,155
2017-07-15T05:01:59.390Z,155
2017-07-15T05:02:40.276Z,155
2017-07-15T05:03:21.175Z,155
2017-07-15T05:04:02.076Z,155
2017-07-15T05:04:42.971Z,160
2017-07-15T05:05:23.869Z,160
2017-07-15T05:06:04.753Z,160
2017-07-15T05:06:45.645Z,160
2017-07-15T05:07:26.522Z,160
2017-07-15T05:08:07.412Z,160
2017-07-15T05:08:48.322Z,165
2017-07-15T05:09:29.202Z,160
2017-07-15T05:10:10.081Z,160
2017-07-15T05:10:50.986Z,165
2017-07-15T05:11:31.883Z,165
2017-07-15T05:12:12.775Z,165
2017-07-15T05:12:53.673Z,165
2017-07-15T05:13:34.545Z,165
2017-07-15T05:14:15.437Z,165
2017-07-15T05:14:56.320Z,170
2017-07-15T05:15:37.211Z,170
2017-07-15T05:16:18.093Z,170
2017-07-15T05:16:58.986Z,170
2017-07-15T05:17:39.872Z,170
2017-07-15T05:18:20.764Z,170
2017-07-15T05:19:01.660Z,175
2017-07-15T05:19:42.564Z,175
2017-07-15T05:20:23.448Z,175
2017-07-15T05:21:04.338Z,175
2017-07-15T05:21:45.229Z,175
2017-07-15T05:22:26.114Z,180
2017-07-15T05:23:07.776Z,180
2017-07-15T05:23:48.718Z,180
2017-07-15T05:24:29.612Z,180
2017-07-15T05:25:10.497Z,180
2017-07-15T05:25:51.377Z,185
2017-07-15T05:26:32.267Z,185
2017-07-15T05:27:13.160Z,185
2017-07-15T05:27:54.045Z,185
2017-07-15T05:28:34.960Z,185
2017-07-15T05:29:15.845Z,185
2017-07-15T05:29:56.739Z,190
2017-07-15T05:30:37.797Z,190
2017-07-15T05:31:18.655Z,190
2017-07-15T05:31:59.539Z,190
2017-07-15T05:32:40.421Z,195
2017-07-15T05:33:21.304Z,195
2017-07-15T05:34:02.191Z,195
2017-07-15T05:34:43.085Z,195
2017-07-15T05:35:23.953Z,200
2017-07-15T05:36:04.851Z,200
2017-07-15T05:36:45.747Z,200
2017-07-15T05:37:26.656Z,205
2017-07-15T05:38:07.550Z,205
2017-07-15T05:38:48.438Z,205
2017-07-15T05:39:29.323Z,210
2017-07-15T05:40:10.215Z,210
2017-07-15T05:40:51.106Z,210
2017-07-15T05:41:31.976Z,210
2017-07-15T05:42:12.860Z,215
2017-07-15T05:42:53.762Z,215
2017-07-15T05:43:34.647Z,215
2017-07-15T05:44:15.527Z,215
2017-07-15T05:44:56.419Z,220
2017-07-15T05:45:37.299Z,220
2017-07-15T05:46:18.185Z,220
2017-07-15T05:46:59.067Z,220
2017-07-15T05:47:39.965Z,225
2017-07-15T05:48:20.854Z,225
2017-07-15T05:49:01.741Z,225
2017-07-15T05:49:42.626Z,230
2017-07-15T05:50:23.518Z,230
2017-07-15T05:51:04.412Z,230
2017-07-15T05:51:45.305Z,235
2017-07-15T05:52:26.202Z,235
2017-07-15T05:53:07.092Z,235
2017-07-15T05:53:47.995Z,240
2017-07-15T05:54:28.887Z,240
2017-07-15T05:55:09.769Z,245
2017-07-15T05:55:50.654Z,245
2017-07-15T05:56:31.553Z,245
2017-07-15T05:57:12.443Z,250
2017-07-15T05:57:53.342Z,250
2017-07-15T05:58:34.230Z,255
2017-07-15T05:59:15.119Z,255
2017-07-15T05:59:56.025Z,260
2017-07-15T06:00:36.911Z,265
2017-07-15T06:01:17.797Z,270
2017-07-15T06:01:58.694Z,270
2017-07-15T06:02:39.585Z,275
2017-07-15T06:03:20.481Z,280
2017-07-15T06:04:01.375Z,285
2017-07-15T06:04:42.250Z,290
2017-07-15T06:05:23.123Z,295
2017-07-15T06:06:04.007Z,295
2017-07-15T06:06:44.896Z,300
2017-07-15T06:07:25.825Z,305
2017-07-15T06:08:06.706Z,310
2017-07-15T06:08:47.589Z,315
2017-07-15T06:09:28.476Z,320
2017-07-15T06:10:09.363Z,325
2017-07-15T06:10:50.267Z,335
2017-07-15T06:11:31.142Z,335
2017-07-15T06:12:12.033Z,340
2017-07-15T06:12:52.925Z,345
2017-07-15T06:13:33.830Z,355
2017-07-15T06:14:14.738Z,365
2017-07-15T06:14:55.626Z,365
2017-07-15T06:15:36.512Z,370
2017-07-15T06:16:17.411Z,375
2017-07-15T06:16:58.375Z,385
2017-07-15T06:17:39.231Z,390
2017-07-15T06:18:20.156Z,395
2017-07-15T06:19:01.048Z,400
2017-07-15T06:19:41.946Z,400
2017-07-15T06:20:22.835Z,405
2017-07-15T06:21:03.726Z,410
2017-07-15T06:21:44.618Z,420
2017-07-15T06:22:25.515Z,430
2017-07-15T06:23:06.414Z,430
2017-07-15T06:23:47.289Z,435
2017-07-15T06:24:28.205Z,440
2017-07-15T06:25:09.072Z,445
2017-07-15T06:25:49.981Z,450
2017-07-15T06:26:30.871Z,455
2017-07-15T06:27:11.758Z,460
2017-07-15T06:27:52.667Z,465
2017-07-15T06:28:33.542Z,465
2017-07-15T06:29:14.440Z,465
2017-07-15T06:29:55.335Z,470
2017-07-15T06:30:36.222Z,475
2017-07-15T06:31:17.137Z,485
2017-07-15T06:31:58.027Z,490
2017-07-15T06:32:38.916Z,500
2017-07-15T06:33:19.837Z,510
2017-07-15T06:34:00.706Z,525
2017-07-15T06:34:41.596Z,540
2017-07-15T06:35:22.498Z,560
2017-07-15T06:36:03.392Z,605
2017-07-15T06:36:44.295Z,755
2017-07-15T06:37:25.190Z,1045
2017-07-15T06:38:06.087Z,1340
2017-07-15T06:38:46.997Z,1585
2017-07-15T06:39:27.889Z,1715
2017-07-15T06:40:08.790Z,1800
2017-07-15T06:40:49.688Z,1900
2017-07-15T06:41:30.602Z,1925
2017-07-15T06:42:11.494Z,1885
2017-07-15T06:42:52.395Z,1825
2017-07-15T06:43:33.288Z,1760
2017-07-15T06:44:14.188Z,1750
2017-07-15T06:44:55.094Z,1745
2017-07-15T06:45:35.983Z,1755
2017-07-15T06:46:16.884Z,1655
2017-07-15T06:46:57.799Z,1365
2017-07-15T06:47:38.688Z,1175
2017-07-15T06:48:19.579Z,1415
2017-07-15T06:49:00.542Z,1670
2017-07-15T06:49:41.466Z,1985
2017-07-15T06:50:22.367Z,1945
2017-07-15T06:51:03.264Z,1875
2017-07-15T06:51:44.148Z,1765
2017-07-15T06:52:25.069Z,1730
2017-07-15T06:53:05.962Z,1755
2017-07-15T06:53:46.856Z,1810
2017-07-15T06:54:27.728Z,1815
2017-07-15T06:55:08.596Z,1815
2017-07-15T06:55:49.463Z,1820
2017-07-15T06:56:30.371Z,1875
2017-07-15T06:57:11.275Z,1955
2017-07-15T06:57:52.146Z,2020
2017-07-15T06:58:33.056Z,2100
2017-07-15T06:59:13.940Z,2125
2017-07-15T06:59:54.825Z,2130
2017-07-15T07:00:35.723Z,2095
2017-07-15T07:01:16.629Z,2015
2017-07-15T07:01:57.518Z,1930
2017-07-15T07:02:38.420Z,1915
2017-07-15T07:03:19.309Z,1975
2017-07-15T07:04:00.205Z,2085
2017-07-15T07:04:41.079Z,2190
2017-07-15T07:05:21.969Z,2235
2017-07-15T07:06:02.872Z,2220
2017-07-15T07:06:43.746Z,2175
2017-07-15T07:07:24.634Z,2110
2017-07-15T07:08:05.526Z,2015
2017-07-15T07:08:46.414Z,1935
2017-07-15T07:10:56.428Z,1935
2017-07-15T07:11:37.333Z,1990
2017-07-15T07:12:18.221Z,2020
2017-07-15T07:12:59.099Z,2010
2017-07-15T07:13:39.995Z,2000
2017-07-15T07:14:20.891Z,2005
2017-07-15T07:15:01.797Z,2030
2017-07-15T07:15:42.691Z,2050
2017-07-15T07:16:23.569Z,2075
2017-07-15T07:17:04.465Z,2055
2017-07-15T07:17:45.358Z,2010
2017-07-15T07:18:26.263Z,1995
2017-07-15T07:19:07.158Z,1965
2017-07-15T07:19:48.056Z,1950
2017-07-15T07:20:28.967Z,1930
2017-07-15T07:21:09.858Z,1920
2017-07-15T07:21:50.766Z,1945
2017-07-15T07:22:31.654Z,1950
2017-07-15T07:23:12.555Z,1775
2017-07-15T07:23:53.480Z,1710
2017-07-15T07:24:34.425Z,1720
2017-07-15T07:25:15.329Z,1795
2017-07-15T07:25:56.222Z,1840
2017-07-15T07:26:37.109Z,1810
2017-07-15T07:27:18.008Z,1875
2017-07-15T07:27:58.909Z,2040
2017-07-15T07:28:39.823Z,2140
2017-07-15T07:29:20.722Z,2160
2017-07-15T07:31:34.935Z,2210
2017-07-15T07:32:15.826Z,2245
2017-07-15T07:32:56.728Z,2280
2017-07-15T07:33:37.657Z,2345
2017-07-15T07:34:18.523Z,2390
2017-07-15T07:34:59.426Z,2435
2017-07-15T07:35:40.311Z,2455
2017-07-15T07:36:21.196Z,2435
2017-07-15T07:37:02.083Z,2415
2017-07-15T07:37:42.975Z,2395
2017-07-15T07:38:23.853Z,2350
2017-07-15T07:39:04.756Z,2310
2017-07-15T07:39:45.651Z,2280
2017-07-15T07:40:26.588Z,2285
2017-07-15T07:41:07.484Z,2350
2017-07-15T07:41:48.363Z,2445
2017-07-15T07:42:29.266Z,2520
2017-07-15T07:43:10.142Z,2560
2017-07-15T07:43:51.061Z,2550
2017-07-15T07:44:31.945Z,2495
2017-07-15T07:45:12.833Z,2445
2017-07-15T07:45:53.733Z,2395
2017-07-15T07:46:34.628Z,2370
2017-07-15T07:47:15.511Z,2340
2017-07-15T07:47:56.399Z,2325
2017-07-15T07:48:37.291Z,2325
2017-07-15T07:49:18.185Z,2315
2017-07-15T07:49:59.072Z,2295
2017-07-15T07:50:39.968Z,2270
2017-07-15T07:51:20.851Z,2255
2017-07-15T07:52:01.741Z,2265
2017-07-15T07:52:42.649Z,2275
2017-07-15T07:53:23.542Z,2300
2017-07-15T07:54:04.451Z,2255
2017-07-15T07:54:45.336Z,1925
2017-07-15T07:55:26.208Z,1400
2017-07-15T07:56:07.098Z,890
2017-07-15T07:56:47.979Z,705
2017-07-15T07:57:28.864Z,640
2017-07-15T07:58:09.759Z,620
2017-07-15T07:58:50.662Z,610
2017-07-15T07:59:31.547Z,605
2017-07-15T08:00:12.453Z,600
2017-07-15T08:00:53.358Z,600
2017-07-15T08:01:34.254Z,595
2017-07-15T08:02:15.168Z,600
2017-07-15T08:02:56.057Z,595
2017-07-15T08:03:36.964Z,595
2017-07-15T08:04:17.870Z,595
2017-07-15T08:04:58.784Z,595
2017-07-15T08:05:39.694Z,600
2017-07-15T08:06:20.594Z,600
2017-07-15T08:07:01.506Z,600
2017-07-15T08:07:42.453Z,600
2017-07-15T08:08:23.307Z,605
2017-07-15T08:09:04.207Z,605
2017-07-15T08:09:45.111Z,605
2017-07-15T08:10:25.989Z,610
2017-07-15T08:11:06.906Z,615
2017-07-15T08:11:47.808Z,615
2017-07-15T08:12:28.708Z,620
2017-07-15T08:13:09.610Z,620
2017-07-15T08:13:50.502Z,625
2017-07-15T08:14:31.412Z,630
2017-07-15T08:15:12.325Z,645
2017-07-15T08:15:53.236Z,655
2017-07-15T08:16:34.148Z,685
2017-07-15T08:17:15.064Z,785
2017-07-15T08:17:55.983Z,1185
2017-07-15T08:18:36.875Z,1705
2017-07-15T08:19:17.773Z,2215
2017-07-15T08:19:58.692Z,2245
2017-07-15T08:20:39.583Z,2205
2017-07-15T08:21:20.497Z,2245
2017-07-15T08:22:01.384Z,2460
2017-07-15T08:22:42.286Z,2615
2017-07-15T08:23:23.188Z,2710
2017-07-15T08:24:04.073Z,2790
2017-07-15T08:24:44.991Z,2845
2017-07-15T08:25:25.877Z,2895
2017-07-15T08:26:06.785Z,2920
2017-07-15T08:26:47.696Z,2925
2017-07-15T08:27:28.598Z,2905
2017-07-15T08:28:09.501Z,2855
2017-07-15T08:28:50.411Z,2825
2017-07-15T08:29:31.803Z,2810
2017-07-15T08:30:12.716Z,2785
2017-07-15T08:30:53.644Z,2770
2017-07-15T08:31:34.538Z,2735
2017-07-15T08:32:15.484Z,2730
2017-07-15T08:32:56.386Z,2690
2017-07-15T08:33:37.283Z,2585
2017-07-15T08:34:18.206Z,2210
2017-07-15T08:34:59.110Z,1710
2017-07-15T08:35:40.010Z,1825
2017-07-15T08:36:20.911Z,2270
2017-07-15T08:37:01.818Z,2560
2017-07-15T08:37:42.717Z,2570
2017-07-15T08:38:23.619Z,2595
2017-07-15T08:39:04.527Z,2655
2017-07-15T08:39:45.432Z,2645
2017-07-15T08:40:26.334Z,2650
2017-07-15T08:41:07.281Z,2680
2017-07-15T08:41:48.196Z,2745
2017-07-15T08:42:29.095Z,2785
2017-07-15T08:43:10.005Z,2820
2017-07-15T08:43:50.913Z,2855
2017-07-15T08:44:31.823Z,2870
2017-07-15T08:45:12.714Z,2930
2017-07-15T08:45:53.607Z,2930
2017-07-15T08:46:34.503Z,2940
2017-07-15T08:47:15.409Z,3025
2017-07-15T08:47:56.325Z,3055
2017-07-15T08:48:37.255Z,3050
2017-07-15T08:49:18.159Z,3030
2017-07-15T08:49:59.052Z,2920
2017-07-15T08:50:39.966Z,2870
2017-07-15T08:51:20.871Z,2765
2017-07-15T08:52:01.785Z,2660
2017-07-15T08:52:42.688Z,2595
2017-07-15T08:53:23.593Z,2305
2017-07-15T08:54:04.640Z,2290
2017-07-15T08:54:45.567Z,2370
2017-07-15T08:55:26.483Z,2610
2017-07-15T08:56:07.396Z,2895
2017-07-15T08:56:48.301Z,2985
2017-07-15T08:57:29.204Z,3010
2017-07-15T08:58:10.110Z,3040
2017-07-15T08:58:51.023Z,2995
2017-07-15T08:59:31.935Z,2935
2017-07-15T09:00:12.838Z,2925
2017-07-15T09:00:53.744Z,2910
2017-07-15T09:01:34.631Z,2855
2017-07-15T09:02:15.526Z,2835
2017-07-15T09:02:56.414Z,2885
2017-07-15T09:03:37.302Z,2900
2017-07-15T09:04:18.213Z,2885
2017-07-15T09:04:59.127Z,2855
2017-07-15T09:05:40.056Z,2765
2017-07-15T09:06:20.954Z,2675
2017-07-15T09:07:01.871Z,2575
2017-07-15T09:07:42.779Z,2475
2017-07-15T09:08:23.694Z,2475
2017-07-15T09:09:04.614Z,2410
2017-07-15T09:09:45.522Z,2475
2017-07-15T09:10:26.443Z,2585
2017-07-15T09:11:07.361Z,2690
2017-07-15T09:11:48.261Z,2790
2017-07-15T09:12:29.165Z,2915
2017-07-15T09:13:10.076Z,3000
2017-07-15T09:13:50.994Z,3080
2017-07-15T09:14:31.917Z,3020
2017-07-15T09:15:12.824Z,2510
2017-07-15T09:15:53.757Z,1920
2017-07-15T09:16:34.677Z,1940
2017-07-15T09:17:15.638Z,2545
2017-07-15T09:17:56.565Z,3090
2017-07-15T09:18:37.473Z,3295
2017-07-15T09:19:18.390Z,3280
2017-07-15T09:19:59.304Z,3230
2017-07-15T09:20:40.222Z,3185
2017-07-15T09:21:21.191Z,3160
2017-07-15T09:22:02.112Z,3145
2017-07-15T09:22:43.029Z,3130
2017-07-15T09:23:23.950Z,3170
2017-07-15T09:24:04.867Z,3230
2017-07-15T09:24:45.789Z,3255
2017-07-15T09:25:26.705Z,3260
2017-07-15T09:26:07.626Z,3210
2017-07-15T09:26:48.537Z,705
2017-07-15T09:27:29.453Z,515
2017-07-15T09:28:10.368Z,475
2017-07-15T09:28:51.284Z,525
2017-07-15T09:29:32.205Z,460
2017-07-15T09:30:13.123Z,445
2017-07-15T09:30:54.036Z,440
2017-07-15T09:31:34.951Z,430
2017-07-15T09:32:15.862Z,435
2017-07-15T09:32:56.777Z,450
2017-07-15T09:33:37.686Z,540
2017-07-15T09:34:18.600Z,1435
2017-07-15T09:34:59.516Z,3385
2017-07-15T09:35:40.427Z,3345
2017-07-15T09:36:21.333Z,3385
2017-07-15T09:37:02.243Z,3425
2017-07-15T09:37:43.154Z,665
2017-07-15T09:38:24.074Z,615
2017-07-15T09:39:04.977Z,2070
2017-07-15T09:39:45.893Z,600
2017-07-15T09:40:26.802Z,570